Lake Bruin, Louisiana
Current Conditions -  °F | °C
As of 2:53 AM on Friday 28 Nov 2014 (Local Time) from KTVR Reporting Station
Clear Clear  
Wind Chill: 27°   Ceiling: Unl
Heat Index: 27°   Visibility: 8mi
Dew Point: 25°   Wind: 3mph
Humidity: 92%   Direction: 140°SE
Pressure: 30.44"   Gusts: NA
Location:  32.1015°N, 91.2929°W
Report Text: KTVR 280853Z AUTO 14003KT 8SM CLR M03/M04 A3044 RMK AO2 SLP316 T10281039 56008
Loading
Personal Weather Stations






























Interactive Weather Map New forecast layout! Learn more

10-Day Weather Forecast

Advertisements
Track Severe Weather on mobile